Time;durP1;ratioP1;P1;durP2;ratioP2;P2;SDS_P1;SDS_P2;PMS_P1;PMS_P2;Temp;Humidity;BMP_temperature;BMP_pressure;BME280_temperature;BME280_humidity;BME280_pressure;Samples;Min_cycle;Max_cycle;Signal;HPM_P1;HPM_P2
2022/07/20 00:01:41;;;;;;;1.70;1.60;;;26.60;98.70;;;;;;5045092;28;20554;-78
2022/07/20 00:04:08;;;;;;;1.90;1.70;;;26.60;98.80;;;;;;5043262;28;20234;-78
2022/07/20 00:06:35;;;;;;;1.85;1.75;;;26.50;98.70;;;;;;5041298;28;20219;-78
2022/07/20 00:11:47;;;;;;;1.88;1.77;;;26.40;98.80;;;;;;5044693;28;20253;-78
2022/07/20 00:14:16;;;;;;;1.70;1.60;;;26.40;99.00;;;;;;5041409;28;20210;-78
2022/07/20 00:16:43;;;;;;;1.83;1.73;;;26.40;99.10;;;;;;5040666;28;20629;-77
2022/07/20 00:19:10;;;;;;;1.77;1.67;;;26.40;99.20;;;;;;5045510;28;20230;-78
2022/07/20 00:21:38;;;;;;;4.15;2.00;;;26.30;99.30;;;;;;5039436;28;20207;-76
2022/07/20 00:24:05;;;;;;;1.90;1.80;;;26.40;99.40;;;;;;5042355;28;20222;-78
2022/07/20 00:26:33;;;;;;;1.70;1.60;;;26.30;99.40;;;;;;5039368;28;20249;-77
2022/07/20 00:29:00;;;;;;;1.80;1.70;;;26.30;99.50;;;;;;5041680;28;20242;-78
2022/07/20 00:31:28;;;;;;;2.10;1.90;;;26.30;99.60;;;;;;5039893;28;20203;-77
2022/07/20 00:33:55;;;;;;;2.00;1.75;;;26.10;99.70;;;;;;5039942;28;20237;-76
2022/07/20 00:36:22;;;;;;;3.25;1.77;;;26.10;99.90;;;;;;5039089;28;20223;-77
2022/07/20 00:38:49;;;;;;;2.35;2.15;;;26.00;99.90;;;;;;5034349;28;20594;-77
2022/07/20 00:41:17;;;;;;;2.25;2.10;;;26.10;99.90;;;;;;5037199;28;20225;-78
2022/07/20 00:44:02;;;;;;;2.25;2.00;;;26.10;99.90;;;;;;5034857;28;20788;-77
2022/07/20 00:46:32;;;;;;;2.30;2.10;;;26.10;99.90;;;;;;5033368;28;20226;-77
2022/07/20 00:48:59;;;;;;;2.00;1.90;;;26.10;99.90;;;;;;5033738;28;20594;-77
2022/07/20 00:51:26;;;;;;;2.28;2.13;;;26.10;99.90;;;;;;5036477;28;20200;-77
2022/07/20 00:53:54;;;;;;;2.92;2.72;;;26.20;99.90;;;;;;5036023;28;20223;-77
2022/07/20 00:56:22;;;;;;;2.75;2.15;;;26.20;99.90;;;;;;5035997;28;20218;-77
2022/07/20 00:58:49;;;;;;;2.22;1.90;;;26.20;99.90;;;;;;5038793;28;20226;-77
2022/07/20 01:01:16;;;;;;;1.90;1.80;;;26.20;99.90;;;;;;5040464;28;20219;-77
2022/07/20 01:03:45;;;;;;;2.30;2.10;;;26.20;99.90;;;;;;5037002;28;20225;-76
2022/07/20 01:06:12;;;;;;;2.20;2.00;;;26.10;99.90;;;;;;5037929;28;20226;-77
2022/07/20 01:08:40;;;;;;;2.15;1.95;;;25.90;99.90;;;;;;5038967;28;20229;-77
2022/07/20 01:11:07;;;;;;;2.03;1.85;;;25.80;99.90;;;;;;5044818;28;20207;-78
2022/07/20 01:13:34;;;;;;;2.20;2.10;;;25.80;99.90;;;;;;5042436;28;20218;-78
2022/07/20 01:16:02;;;;;;;3.35;2.10;;;25.80;99.90;;;;;;5045620;28;20751;-78
2022/07/20 01:18:29;;;;;;;2.20;2.10;;;25.80;99.90;;;;;;5039731;28;20743;-77
2022/07/20 01:21:02;;;;;;;2.33;2.13;;;25.80;99.90;;;;;;5047047;28;20231;-77
2022/07/20 01:23:29;;;;;;;1.88;1.77;;;25.70;99.90;;;;;;5041194;28;20223;-77
2022/07/20 01:25:57;;;;;;;2.97;2.15;;;25.60;99.90;;;;;;5040919;28;20230;-77
2022/07/20 01:28:25;;;;;;;2.30;2.10;;;25.50;99.90;;;;;;5040550;28;20222;-78
2022/07/20 01:30:52;;;;;;;1.90;1.80;;;25.50;99.90;;;;;;5041270;28;20207;-76
2022/07/20 01:33:19;;;;;;;2.97;2.40;;;25.50;99.90;;;;;;5043138;28;20211;-77
2022/07/20 01:35:47;;;;;;;2.00;1.85;;;25.50;99.90;;;;;;5040968;28;20877;-77
2022/07/20 01:38:15;;;;;;;2.17;1.98;;;25.40;99.90;;;;;;5038750;28;20914;-77
2022/07/20 01:40:42;;;;;;;2.85;2.10;;;25.50;99.90;;;;;;5037624;28;20215;-77
2022/07/20 01:43:09;;;;;;;2.30;2.10;;;25.50;99.90;;;;;;5043986;28;20226;-77
2022/07/20 01:45:37;;;;;;;2.25;2.05;;;25.50;99.90;;;;;;5043221;28;20235;-78
2022/07/20 01:48:04;;;;;;;2.20;2.00;;;25.60;99.90;;;;;;5042655;28;20215;-77
2022/07/20 01:50:31;;;;;;;2.55;2.15;;;25.60;99.90;;;;;;5040740;28;20842;-78
2022/07/20 01:52:58;;;;;;;2.58;2.13;;;25.60;99.90;;;;;;5044109;28;20218;-79
2022/07/20 01:55:27;;;;;;;2.25;2.05;;;25.50;99.90;;;;;;5042002;28;20566;-77
2022/07/20 01:57:54;;;;;;;3.38;2.65;;;25.50;99.90;;;;;;5039746;28;20229;-76
2022/07/20 02:00:21;;;;;;;1.88;1.77;;;25.30;99.90;;;;;;5042202;28;21635;-74
2022/07/20 02:02:48;;;;;;;2.25;2.05;;;25.20;99.90;;;;;;5042897;28;20223;-77
2022/07/20 02:05:16;;;;;;;2.40;2.20;;;25.20;99.90;;;;;;5045362;28;20219;-77
2022/07/20 02:07:43;;;;;;;2.65;2.42;;;25.20;99.90;;;;;;5043476;28;20515;-76
2022/07/20 02:10:11;;;;;;;2.40;2.20;;;25.20;99.90;;;;;;5045131;28;20199;-73
2022/07/20 02:12:40;;;;;;;2.20;2.10;;;25.20;99.90;;;;;;5041358;28;20219;-76
2022/07/20 02:15:10;;;;;;;3.35;2.20;;;25.20;99.90;;;;;;5044688;28;20222;-74
2022/07/20 02:17:37;;;;;;;2.53;2.33;;;25.20;99.90;;;;;;5040342;28;20237;-75
2022/07/20 02:20:05;;;;;;;3.05;2.45;;;25.20;99.90;;;;;;5038035;28;20222;-77
2022/07/20 02:22:32;;;;;;;2.95;2.25;;;25.20;99.90;;;;;;5044233;28;20214;-75
2022/07/20 02:24:59;;;;;;;2.67;2.47;;;25.00;99.90;;;;;;5036998;28;20235;-77
2022/07/20 02:27:26;;;;;;;2.40;2.20;;;25.00;99.90;;;;;;5041139;28;20230;-77
2022/07/20 02:29:55;;;;;;;2.33;2.22;;;25.00;99.90;;;;;;5046384;28;20206;-75
2022/07/20 02:32:22;;;;;;;2.95;2.35;;;25.00;99.90;;;;;;5041823;28;20220;-75
2022/07/20 02:34:49;;;;;;;2.97;2.55;;;25.10;99.90;;;;;;5049065;28;20558;-78
2022/07/20 02:37:16;;;;;;;2.20;2.10;;;25.10;99.90;;;;;;5046642;28;20219;-78
2022/07/20 02:39:43;;;;;;;2.53;2.33;;;25.00;99.90;;;;;;5046413;28;20199;-78
2022/07/20 02:42:10;;;;;;;2.20;2.10;;;25.10;99.90;;;;;;5044050;28;20786;-78
2022/07/20 02:44:37;;;;;;;2.20;2.00;;;25.10;99.90;;;;;;5049172;28;20199;-78
2022/07/20 02:47:06;;;;;;;3.42;2.60;;;25.20;99.90;;;;;;5045931;28;20233;-78
2022/07/20 02:49:34;;;;;;;3.10;2.30;;;25.20;99.90;;;;;;5043212;28;20195;-77
2022/07/20 02:52:01;;;;;;;2.72;2.20;;;25.20;99.90;;;;;;5045085;28;20191;-79
2022/07/20 02:54:28;;;;;;;2.50;2.30;;;25.20;99.90;;;;;;5043258;28;20203;-78
2022/07/20 02:56:55;;;;;;;2.28;2.17;;;25.20;99.90;;;;;;5041194;28;20737;-77
2022/07/20 02:59:22;;;;;;;2.08;1.98;;;25.20;99.90;;;;;;5042886;28;20704;-75
2022/07/20 03:01:49;;;;;;;2.50;2.30;;;25.20;99.90;;;;;;5045502;28;20285;-77
2022/07/20 03:04:17;;;;;;;2.40;2.20;;;25.20;99.90;;;;;;5046878;28;20199;-78
2022/07/20 03:06:44;;;;;;;2.47;2.30;;;25.20;99.90;;;;;;5043705;28;20219;-76
2022/07/20 03:09:11;;;;;;;2.30;2.17;;;25.20;99.90;;;;;;5044274;28;20201;-78
2022/07/20 03:11:38;;;;;;;2.35;2.15;;;25.20;99.90;;;;;;5044588;28;20191;-77
2022/07/20 03:14:06;;;;;;;2.47;2.28;;;25.20;99.90;;;;;;5043960;28;20604;-78
2022/07/20 03:16:33;;;;;;;3.08;2.40;;;25.20;99.90;;;;;;5046294;28;20238;-76
2022/07/20 03:19:00;;;;;;;2.45;2.25;;;25.20;99.90;;;;;;5042883;28;20724;-76
2022/07/20 03:21:28;;;;;;;2.72;2.17;;;25.20;99.90;;;;;;5041915;28;20692;-75
2022/07/20 03:23:56;;;;;;;2.58;2.38;;;25.20;99.90;;;;;;5045930;28;20538;-76
2022/07/20 03:26:23;;;;;;;2.60;2.30;;;25.20;99.90;;;;;;5040219;28;20698;-79
2022/07/20 03:28:50;;;;;;;3.67;2.28;;;25.20;99.90;;;;;;5041726;28;20219;-75
2022/07/20 03:31:17;;;;;;;2.65;2.45;;;25.20;99.90;;;;;;5043494;28;20223;-77
2022/07/20 03:33:44;;;;;;;2.50;2.30;;;25.20;99.90;;;;;;5041583;28;20219;-77
2022/07/20 03:36:11;;;;;;;2.20;2.10;;;25.20;99.90;;;;;;5045265;28;20290;-78
2022/07/20 03:38:39;;;;;;;2.40;2.20;;;25.20;99.90;;;;;;5042007;28;20281;-76
2022/07/20 03:41:07;;;;;;;2.55;2.35;;;25.20;99.90;;;;;;5043109;28;20242;-78
2022/07/20 03:43:34;;;;;;;4.35;2.50;;;25.20;99.90;;;;;;5041213;28;20229;-79
2022/07/20 03:46:01;;;;;;;2.40;2.20;;;25.20;99.90;;;;;;5067874;22;20233;-74
2022/07/20 03:48:28;;;;;;;2.53;2.35;;;25.20;99.90;;;;;;5059841;28;20603;-73
2022/07/20 03:50:55;;;;;;;2.22;2.13;;;25.20;99.90;;;;;;5062182;28;20190;-71
2022/07/20 03:53:22;;;;;;;2.55;2.35;;;25.20;99.90;;;;;;5065149;28;20221;-73
2022/07/20 03:55:51;;;;;;;2.40;2.20;;;25.20;99.90;;;;;;5061023;28;20215;-73
2022/07/20 03:58:18;;;;;;;2.30;2.10;;;25.20;99.90;;;;;;5064703;28;20214;-72
2022/07/20 04:00:45;;;;;;;2.63;2.42;;;25.20;99.90;;;;;;5064788;28;20703;-73
2022/07/20 04:03:12;;;;;;;2.75;2.47;;;25.20;99.90;;;;;;5061732;28;20229;-73
2022/07/20 04:05:39;;;;;;;2.65;2.45;;;25.10;99.90;;;;;;5059298;28;21897;-73
2022/07/20 04:08:08;;;;;;;2.80;2.60;;;25.20;99.90;;;;;;5064892;28;20244;-73
2022/07/20 04:10:35;;;;;;;2.40;2.22;;;25.10;99.90;;;;;;5061227;28;21635;-73
2022/07/20 04:13:04;;;;;;;2.30;2.10;;;25.10;99.90;;;;;;5057916;28;20297;-72
2022/07/20 04:15:31;;;;;;;2.58;2.38;;;25.20;99.90;;;;;;5061218;28;20898;-72
2022/07/20 04:17:58;;;;;;;2.65;2.45;;;25.10;99.90;;;;;;5064455;28;20218;-72
2022/07/20 04:20:25;;;;;;;2.80;2.28;;;25.20;99.90;;;;;;5063269;28;20206;-71
2022/07/20 04:22:52;;;;;;;2.45;2.25;;;25.20;99.90;;;;;;5062886;28;20230;-71
2022/07/20 04:25:21;;;;;;;2.67;2.28;;;25.20;99.90;;;;;;5063547;28;20222;-72
2022/07/20 04:27:49;;;;;;;2.53;2.33;;;25.30;99.90;;;;;;5060355;28;20223;-73
2022/07/20 04:30:18;;;;;;;2.10;1.90;;;25.30;99.90;;;;;;5060621;28;20579;-71
2022/07/20 04:32:45;;;;;;;2.72;2.53;;;25.30;99.90;;;;;;5062641;28;20222;-73
2022/07/20 04:35:12;;;;;;;2.95;2.28;;;25.30;99.90;;;;;;5060345;28;20219;-73
2022/07/20 04:37:40;;;;;;;2.30;2.10;;;25.30;99.90;;;;;;5060930;28;20237;-74
2022/07/20 04:40:08;;;;;;;2.03;1.83;;;25.40;99.90;;;;;;5061174;28;20202;-73
2022/07/20 04:42:35;;;;;;;2.60;2.30;;;25.40;99.90;;;;;;5061986;28;20226;-73
2022/07/20 04:45:03;;;;;;;2.85;2.65;;;25.40;99.90;;;;;;5059045;28;20276;-72
2022/07/20 04:47:31;;;;;;;2.60;2.40;;;25.50;99.90;;;;;;5061894;28;20591;-71
2022/07/20 04:49:58;;;;;;;2.53;2.30;;;25.50;99.90;;;;;;5062612;28;21133;-72
2022/07/20 04:52:25;;;;;;;3.70;2.50;;;25.50;99.90;;;;;;5061417;28;20222;-72
2022/07/20 04:54:52;;;;;;;2.53;2.33;;;25.50;99.90;;;;;;5063836;28;20194;-73
2022/07/20 04:57:19;;;;;;;2.78;2.58;;;25.50;99.90;;;;;;5059286;28;20245;-72
2022/07/20 04:59:46;;;;;;;2.53;2.38;;;25.60;99.90;;;;;;5058225;28;20213;-73
2022/07/20 05:02:14;;;;;;;3.47;2.50;;;25.70;99.90;;;;;;5058892;28;20225;-72
2022/07/20 05:04:42;;;;;;;2.70;2.50;;;25.70;99.90;;;;;;5063062;28;20197;-72
2022/07/20 05:07:09;;;;;;;2.60;2.22;;;25.70;99.90;;;;;;5060134;28;20592;-72
2022/07/20 05:09:36;;;;;;;3.00;2.15;;;25.80;99.90;;;;;;5058273;28;20551;-70
2022/07/20 05:12:04;;;;;;;3.85;2.30;;;25.90;99.90;;;;;;5060385;28;20715;-73
2022/07/20 05:14:31;;;;;;;2.55;2.35;;;25.90;99.90;;;;;;5063407;28;20683;-72
2022/07/20 05:16:58;;;;;;;2.95;2.75;;;26.00;99.90;;;;;;5061503;28;20719;-73
2022/07/20 05:19:25;;;;;;;2.58;2.35;;;26.00;99.90;;;;;;5061918;28;20190;-72
2022/07/20 05:21:55;;;;;;;2.58;2.38;;;26.00;99.90;;;;;;5063238;28;20221;-73
2022/07/20 05:24:22;;;;;;;2.67;2.47;;;26.00;99.90;;;;;;5066366;28;20297;-72
2022/07/20 05:26:49;;;;;;;2.60;2.40;;;26.10;99.90;;;;;;5060079;28;20218;-73
2022/07/20 05:29:16;;;;;;;2.70;2.50;;;26.10;99.90;;;;;;5060219;28;20872;-73
2022/07/20 05:31:43;;;;;;;2.80;2.60;;;26.10;99.90;;;;;;5059932;28;20614;-71
2022/07/20 05:34:11;;;;;;;2.40;2.20;;;26.10;99.90;;;;;;5054676;28;20205;-73
2022/07/20 05:36:38;;;;;;;3.53;2.50;;;26.10;99.90;;;;;;5062922;28;20391;-74
2022/07/20 05:39:09;;;;;;;3.33;3.03;;;26.00;99.90;;;;;;5056999;28;20210;-74
2022/07/20 05:41:36;;;;;;;3.22;2.88;;;26.00;99.90;;;;;;5054061;28;20553;-75
2022/07/20 05:44:04;;;;;;;4.07;3.08;;;26.00;99.90;;;;;;5059987;28;20643;-76
2022/07/20 05:46:31;;;;;;;3.15;2.95;;;26.00;99.90;;;;;;5059175;28;20233;-77
2022/07/20 05:48:58;;;;;;;3.45;3.15;;;26.10;99.90;;;;;;5062234;28;20218;-75
2022/07/20 05:51:25;;;;;;;2.90;2.70;;;26.10;99.90;;;;;;5060212;28;20591;-76
2022/07/20 05:53:52;;;;;;;3.72;3.20;;;26.20;99.90;;;;;;5058600;28;20226;-75
2022/07/20 05:56:20;;;;;;;3.35;3.05;;;26.20;99.90;;;;;;5060181;28;20214;-75
2022/07/20 05:58:47;;;;;;;3.17;2.88;;;26.30;99.90;;;;;;5066802;28;20237;-75
2022/07/20 06:01:14;;;;;;;3.30;3.00;;;26.20;99.90;;;;;;5069075;28;20279;-76
2022/07/20 06:03:42;;;;;;;3.80;3.10;;;26.40;99.90;;;;;;5069826;28;20218;-76
2022/07/20 06:06:09;;;;;;;4.03;3.00;;;26.40;99.90;;;;;;5070220;28;20220;-76
2022/07/20 06:08:37;;;;;;;3.50;3.20;;;26.50;99.90;;;;;;5073507;28;20386;-76
2022/07/20 06:11:04;;;;;;;6.25;3.30;;;26.60;99.90;;;;;;5064924;28;20286;-77
2022/07/20 06:13:33;;;;;;;3.92;2.90;;;26.60;99.90;;;;;;5071080;28;20218;-75
2022/07/20 06:16:00;;;;;;;3.70;3.33;;;26.60;99.90;;;;;;5077860;28;20218;-74
2022/07/20 06:18:27;;;;;;;3.20;2.90;;;26.60;99.90;;;;;;5077392;28;20214;-75
2022/07/20 06:20:54;;;;;;;2.80;2.60;;;26.70;99.90;;;;;;5065523;28;20628;-77
2022/07/20 06:23:21;;;;;;;3.95;3.10;;;26.70;99.90;;;;;;5067307;28;20222;-76
2022/07/20 06:25:49;;;;;;;3.08;2.88;;;26.80;99.90;;;;;;5074091;28;20210;-77
2022/07/20 06:28:16;;;;;;;3.38;3.13;;;26.90;99.90;;;;;;5082437;28;20244;-76
2022/07/20 06:30:44;;;;;;;6.22;3.20;;;26.90;99.90;;;;;;5079425;28;20190;-76
2022/07/20 06:33:11;;;;;;;4.07;3.20;;;27.00;99.90;;;;;;5068229;28;20223;-76
2022/07/20 06:35:38;;;;;;;4.28;3.15;;;27.10;99.90;;;;;;5066900;28;20716;-76
2022/07/20 06:38:05;;;;;;;3.70;3.40;;;27.20;99.90;;;;;;5058907;28;20245;-75
2022/07/20 06:40:34;;;;;;;3.72;3.42;;;27.20;99.90;;;;;;5065947;28;20657;-76
2022/07/20 06:43:01;;;;;;;3.53;3.22;;;27.20;99.90;;;;;;5072903;28;20221;-74
2022/07/20 06:45:28;;;;;;;3.80;3.47;;;27.20;99.90;;;;;;5077707;28;20226;-75
2022/07/20 06:47:56;;;;;;;4.03;3.63;;;27.20;99.90;;;;;;5074857;28;20222;-76
2022/07/20 06:50:24;;;;;;;3.42;3.13;;;27.30;99.90;;;;;;5071892;28;20194;-75
2022/07/20 06:52:51;;;;;;;5.72;3.80;;;27.40;99.90;;;;;;5071824;28;20656;-76
2022/07/20 06:55:18;;;;;;;3.47;2.95;;;27.50;99.90;;;;;;5076526;28;20214;-75
2022/07/20 06:57:45;;;;;;;7.53;3.45;;;27.50;99.90;;;;;;5074889;28;20202;-76
2022/07/20 07:00:14;;;;;;;4.40;3.30;;;27.60;99.90;;;;;;5078535;28;20202;-75
2022/07/20 07:02:41;;;;;;;4.38;2.88;;;27.70;99.90;;;;;;5076286;28;20218;-74
2022/07/20 07:05:10;;;;;;;3.70;3.40;;;27.70;99.90;;;;;;5083229;28;20229;-76
2022/07/20 07:07:38;;;;;;;3.08;2.88;;;27.80;99.90;;;;;;5081150;28;20991;-76
2022/07/20 07:10:05;;;;;;;13.18;3.88;;;27.90;99.90;;;;;;5079018;28;20198;-76
2022/07/20 07:12:32;;;;;;;16.10;4.03;;;28.00;99.90;;;;;;5073716;28;20214;-76
2022/07/20 07:15:00;;;;;;;7.35;3.78;;;28.00;99.90;;;;;;5081950;28;20201;-76
2022/07/20 07:17:30;;;;;;;6.15;3.40;;;28.10;99.90;;;;;;5078741;28;20231;-76
2022/07/20 07:19:58;;;;;;;7.72;3.45;;;28.30;99.90;;;;;;5083406;28;20205;-76
2022/07/20 07:22:27;;;;;;;3.53;3.22;;;28.40;99.90;;;;;;5068558;28;20227;-75
2022/07/20 07:24:54;;;;;;;4.57;3.38;;;28.50;99.90;;;;;;5074920;28;20290;-74
2022/07/20 07:27:22;;;;;;;4.22;2.97;;;28.60;99.90;;;;;;5074831;28;20218;-76
2022/07/20 07:29:49;;;;;;;3.50;3.08;;;28.70;99.90;;;;;;5072913;28;20191;-73
2022/07/20 07:32:16;;;;;;;3.30;3.00;;;28.80;99.90;;;;;;5073010;28;20229;-76
2022/07/20 07:34:43;;;;;;;4.13;3.72;;;29.00;99.90;;;;;;5066143;28;20191;-76
2022/07/20 07:37:10;;;;;;;5.97;3.42;;;29.10;99.90;;;;;;5061243;28;20225;-75
2022/07/20 07:39:39;;;;;;;4.15;3.47;;;29.10;99.90;;;;;;5059574;28;20250;-74
2022/07/20 07:42:06;;;;;;;4.65;3.70;;;29.20;99.90;;;;;;5062191;28;20307;-75
2022/07/20 07:44:33;;;;;;;3.00;2.80;;;29.10;99.90;;;;;;5062717;28;20228;-74
2022/07/20 07:47:00;;;;;;;4.53;3.75;;;29.20;99.90;;;;;;5059664;28;20219;-74
2022/07/20 07:49:27;;;;;;;3.92;3.50;;;29.40;99.90;;;;;;5058083;28;20203;-74
2022/07/20 07:51:55;;;;;;;3.42;3.20;;;29.60;99.90;;;;;;5060445;28;20190;-75
2022/07/20 07:54:22;;;;;;;4.28;3.90;;;29.60;99.90;;;;;;5056155;28;20210;-74
2022/07/20 07:56:50;;;;;;;4.13;3.83;;;29.60;99.90;;;;;;5058896;28;20704;-74
2022/07/20 07:59:17;;;;;;;3.30;3.10;;;29.70;99.90;;;;;;5055915;28;20711;-73
2022/07/20 08:01:44;;;;;;;3.92;3.60;;;29.80;99.90;;;;;;5058707;28;20463;-73
2022/07/20 08:04:12;;;;;;;4.15;3.40;;;29.80;99.90;;;;;;5058016;28;20194;-75
2022/07/20 08:06:39;;;;;;;4.25;3.30;;;29.80;99.90;;;;;;5059096;28;20228;-74
2022/07/20 08:09:06;;;;;;;4.00;3.55;;;29.90;99.90;;;;;;5055561;28;20218;-75
2022/07/20 08:11:33;;;;;;;3.97;3.65;;;29.90;99.90;;;;;;5065052;28;20202;-73
2022/07/20 08:14:02;;;;;;;3.97;3.55;;;30.10;99.90;;;;;;5065437;28;20214;-74
2022/07/20 08:16:30;;;;;;;3.30;3.10;;;30.20;99.90;;;;;;5066483;28;20222;-74
2022/07/20 08:18:57;;;;;;;4.82;3.75;;;30.20;99.90;;;;;;5059870;28;20225;-73
2022/07/20 08:21:25;;;;;;;3.53;3.22;;;30.20;99.90;;;;;;5055371;28;20221;-74
2022/07/20 08:23:52;;;;;;;5.32;3.58;;;30.30;99.90;;;;;;5058256;28;20696;-73
2022/07/20 08:26:19;;;;;;;4.05;3.67;;;30.40;99.90;;;;;;5063158;28;20225;-73
2022/07/20 08:28:50;;;;;;;4.07;3.67;;;30.50;99.90;;;;;;5062390;28;20221;-75
2022/07/20 08:31:18;;;;;;;4.18;3.70;;;30.60;99.90;;;;;;5058024;28;20190;-74
2022/07/20 08:33:45;;;;;;;5.63;3.33;;;30.80;99.90;;;;;;5063466;28;20243;-75
2022/07/20 08:36:12;;;;;;;4.00;3.60;;;30.90;99.50;;;;;;5063339;28;20703;-75
2022/07/20 08:38:40;;;;;;;3.55;3.25;;;31.10;99.60;;;;;;5058286;28;20214;-75
2022/07/20 08:41:08;;;;;;;3.78;3.45;;;31.20;99.40;;;;;;5066690;28;20214;-75
2022/07/20 08:43:36;;;;;;;3.95;3.47;;;31.30;99.00;;;;;;5067382;28;20606;-73
2022/07/20 08:46:03;;;;;;;3.70;3.40;;;31.10;98.70;;;;;;5070906;28;20214;-75
2022/07/20 08:48:35;;;;;;;3.88;3.58;;;31.10;98.70;;;;;;5060841;28;20726;-76
2022/07/20 08:51:02;;;;;;;3.92;3.63;;;31.10;98.60;;;;;;5067867;28;20186;-76
2022/07/20 08:53:30;;;;;;;3.60;3.33;;;31.20;98.40;;;;;;5070927;28;20225;-74
2022/07/20 08:55:57;;;;;;;3.90;3.55;;;31.30;98.50;;;;;;5066723;28;20224;-76
2022/07/20 08:58:24;;;;;;;3.85;3.47;;;31.40;98.20;;;;;;5065246;28;20289;-77
2022/07/20 09:00:51;;;;;;;3.33;3.03;;;31.50;98.10;;;;;;5058296;28;20203;-76
2022/07/20 09:03:18;;;;;;;4.25;3.33;;;31.50;98.00;;;;;;5059859;28;20226;-76
2022/07/20 09:06:01;;;;;;;4.28;3.40;;;31.60;98.00;;;;;;5052240;28;20685;-75
2022/07/20 09:08:28;;;;;;;5.43;3.20;;;31.70;97.70;;;;;;5055565;28;20225;-76
2022/07/20 09:10:59;;;;;;;9.75;3.78;;;31.80;97.60;;;;;;5058087;28;20498;-74
2022/07/20 09:13:30;;;;;;;4.90;3.50;;;31.80;97.80;;;;;;5053901;28;20246;-76
2022/07/20 09:15:58;;;;;;;3.88;3.47;;;31.90;97.70;;;;;;5065032;28;20225;-76
2022/07/20 09:18:27;;;;;;;5.47;3.72;;;31.90;97.70;;;;;;5057010;28;20222;-73
2022/07/20 09:20:57;;;;;;;4.85;3.85;;;32.00;97.70;;;;;;5058338;28;20195;-76
2022/07/20 09:23:26;;;;;;;3.97;3.28;;;32.10;97.50;;;;;;5056271;28;20219;-76
2022/07/20 09:25:59;;;;;;;3.45;3.15;;;32.10;97.50;;;;;;5050781;28;20613;-76
2022/07/20 09:28:38;;;;;;;3.80;3.47;;;32.40;97.80;;;;;;5054069;28;20222;-76
2022/07/20 09:31:11;;;;;;;3.83;3.35;;;32.60;97.20;;;;;;5060673;28;20203;-75
2022/07/20 09:33:38;;;;;;;9.43;3.40;;;32.60;97.20;;;;;;5053526;28;20302;-74
2022/07/20 09:36:08;;;;;;;3.60;3.30;;;32.40;97.40;;;;;;5060542;28;20230;-73
2022/07/20 09:38:38;;;;;;;4.28;3.40;;;32.40;97.10;;;;;;5067691;28;20223;-76
2022/07/20 09:41:07;;;;;;;3.50;3.20;;;32.60;97.10;;;;;;5073538;28;20202;-75
2022/07/20 09:43:35;;;;;;;4.07;3.42;;;32.60;96.70;;;;;;5075621;28;20221;-75
2022/07/20 09:46:16;;;;;;;3.72;3.42;;;32.80;96.80;;;;;;5079806;28;20208;-74
2022/07/20 09:48:45;;;;;;;3.53;3.10;;;32.90;95.80;;;;;;5171367;22;20761;-79
2022/07/20 09:51:21;;;;;;;3.20;3.00;;;32.90;95.60;;;;;;5040105;28;20202;-80
2022/07/20 09:53:48;;;;;;;3.78;3.20;;;33.00;93.90;;;;;;5039694;28;20219;-81
2022/07/20 09:56:17;;;;;;;3.63;3.33;;;33.00;94.20;;;;;;5042071;28;20199;-81
2022/07/20 09:58:47;;;;;;;3.45;3.15;;;33.00;94.50;;;;;;5041719;28;20626;-78
2022/07/20 10:01:18;;;;;;;3.97;2.88;;;32.90;94.50;;;;;;5041557;28;20201;-75
2022/07/20 10:03:46;;;;;;;3.17;2.97;;;33.00;94.50;;;;;;5040644;28;20219;-76
2022/07/20 10:06:15;;;;;;;3.25;2.92;;;33.00;94.40;;;;;;5041977;28;20203;-74
2022/07/20 10:08:44;;;;;;;5.78;3.40;;;33.10;94.60;;;;;;5042373;28;20719;-79
2022/07/20 10:11:12;;;;;;;3.35;2.88;;;33.30;94.10;;;;;;5045018;28;20227;-75
2022/07/20 10:13:41;;;;;;;2.83;2.63;;;33.30;94.20;;;;;;5042585;28;20774;-76
2022/07/20 10:16:21;;;;;;;4.68;2.90;;;33.30;93.90;;;;;;5042991;28;20203;-76
2022/07/20 10:18:48;;;;;;;6.35;3.50;;;33.30;94.00;;;;;;5040610;28;20236;-75
2022/07/20 10:21:40;;;;;;;3.38;3.10;;;33.30;94.20;;;;;;5045621;28;20857;-79
2022/07/20 10:24:25;;;;;;;3.55;2.80;;;33.50;94.30;;;;;;5042221;28;20223;-76
2022/07/20 10:26:54;;;;;;;3.28;3.00;;;33.80;93.60;;;;;;5046102;28;20255;-79
2022/07/20 10:29:30;;;;;;;3.60;3.20;;;33.70;93.70;;;;;;5042619;28;20211;-74
2022/07/20 10:31:59;;;;;;;5.43;3.30;;;33.70;93.80;;;;;;5043878;28;20832;-74
2022/07/20 10:34:37;;;;;;;3.72;3.40;;;33.70;94.00;;;;;;5043492;28;20723;-74
2022/07/20 10:37:24;;;;;;;4.53;3.25;;;33.70;94.20;;;;;;5042540;28;20230;-74
2022/07/20 10:39:53;;;;;;;4.18;3.10;;;33.80;93.60;;;;;;5041906;28;20234;-75
2022/07/20 10:42:26;;;;;;;3.03;2.72;;;33.90;93.60;;;;;;5042773;28;20227;-75
2022/07/20 10:44:53;;;;;;;2.95;2.72;;;33.90;93.50;;;;;;5038269;28;20194;-74
2022/07/20 10:47:40;;;;;;;2.88;2.60;;;34.20;93.60;;;;;;5037708;28;20212;-74
2022/07/20 10:50:08;;;;;;;4.03;2.90;;;34.60;92.90;;;;;;5037959;28;20214;-74
2022/07/20 10:52:36;;;;;;;4.57;2.78;;;34.60;92.70;;;;;;5037501;28;20231;-74
2022/07/20 10:55:06;;;;;;;2.90;2.60;;;34.40;92.40;;;;;;5038871;28;20195;-74
2022/07/20 10:57:35;;;;;;;3.35;2.90;;;34.50;92.70;;;;;;5035984;28;20218;-74
2022/07/20 11:00:11;;;;;;;5.38;3.15;;;34.60;92.80;;;;;;5039737;28;20254;-75
2022/07/20 11:02:39;;;;;;;3.30;2.90;;;34.60;91.90;;;;;;5041934;28;20759;-75
2022/07/20 11:05:18;;;;;;;3.45;3.15;;;34.40;92.40;;;;;;5043731;28;20196;-75
2022/07/20 11:07:45;;;;;;;3.00;2.50;;;34.60;92.30;;;;;;5040867;28;20462;-75
2022/07/20 11:10:23;;;;;;;3.38;2.90;;;34.60;92.00;;;;;;5042400;28;20199;-75
2022/07/20 11:12:56;;;;;;;2.92;2.70;;;34.50;91.50;;;;;;5039777;28;20214;-75
2022/07/20 11:15:23;;;;;;;3.45;3.05;;;34.70;92.00;;;;;;5044019;28;20207;-75
2022/07/20 11:17:55;;;;;;;4.18;3.15;;;34.70;91.40;;;;;;5038710;28;20215;-74
2022/07/20 11:20:22;;;;;;;3.13;2.92;;;34.70;91.00;;;;;;5042301;28;20842;-74
2022/07/20 11:22:50;;;;;;;5.28;3.10;;;34.70;90.80;;;;;;5042425;28;20221;-76
2022/07/20 11:25:17;;;;;;;4.18;2.88;;;34.60;91.10;;;;;;5036642;28;20299;-74
2022/07/20 11:28:00;;;;;;;5.32;2.80;;;34.60;91.00;;;;;;5037693;28;20230;-75
2022/07/20 11:30:33;;;;;;;3.67;3.25;;;34.70;90.30;;;;;;5039570;28;20202;-75
2022/07/20 11:33:00;;;;;;;5.90;3.08;;;34.90;90.50;;;;;;5039781;28;20727;-77
2022/07/20 11:35:28;;;;;;;4.20;3.20;;;35.00;91.10;;;;;;5038869;28;20708;-77
2022/07/20 11:37:55;;;;;;;3.42;2.92;;;35.20;90.20;;;;;;5041143;28;20219;-75
2022/07/20 11:40:22;;;;;;;4.40;3.35;;;35.20;89.00;;;;;;5039597;28;20194;-77
2022/07/20 11:43:09;;;;;;;5.90;3.22;;;35.40;88.40;;;;;;5039156;28;20222;-79
2022/07/20 11:45:37;;;;;;;6.30;3.30;;;35.60;88.00;;;;;;5039774;28;20202;-75
2022/07/20 11:48:17;;;;;;;3.53;3.22;;;35.50;87.10;;;;;;5036248;28;20219;-75
2022/07/20 11:50:44;;;;;;;3.45;3.15;;;35.50;86.00;;;;;;5038451;28;20262;-75
2022/07/20 11:53:26;;;;;;;3.53;3.22;;;35.60;86.50;;;;;;5039655;28;20223;-77
2022/07/20 11:55:54;;;;;;;3.75;3.30;;;35.80;85.80;;;;;;5037908;28;20195;-75
2022/07/20 11:58:29;;;;;;;4.05;3.38;;;35.90;86.00;;;;;;5040131;28;20230;-74
2022/07/20 12:00:57;;;;;;;4.28;3.22;;;35.90;85.20;;;;;;5044699;28;20639;-74
2022/07/20 12:03:29;;;;;;;3.78;3.38;;;35.90;86.00;;;;;;5040534;28;20219;-73
2022/07/20 12:05:59;;;;;;;3.75;3.08;;;35.90;85.40;;;;;;5047886;28;20199;-74
2022/07/20 12:08:26;;;;;;;3.20;3.00;;;36.10;84.80;;;;;;5042614;28;20229;-76
2022/07/20 12:10:55;;;;;;;3.20;2.90;;;36.10;85.10;;;;;;5042867;28;20203;-73
2022/07/20 12:13:22;;;;;;;5.32;3.30;;;36.10;84.70;;;;;;5042624;28;20225;-74
2022/07/20 12:15:59;;;;;;;4.22;3.60;;;36.10;84.90;;;;;;5046524;28;20195;-75
2022/07/20 12:18:37;;;;;;;5.20;3.30;;;36.10;83.20;;;;;;5043239;28;20711;-75
2022/07/20 12:21:06;;;;;;;9.27;3.22;;;36.20;82.50;;;;;;5044710;28;20283;-75
2022/07/20 12:23:34;;;;;;;5.80;3.45;;;36.30;83.90;;;;;;5043619;28;20225;-76
2022/07/20 12:26:03;;;;;;;3.63;2.92;;;36.40;83.00;;;;;;5040467;28;20708;-75
2022/07/20 12:28:32;;;;;;;3.83;3.53;;;36.40;83.00;;;;;;5040941;28;20226;-75
2022/07/20 12:31:16;;;;;;;5.05;3.45;;;36.40;82.60;;;;;;5042846;28;20195;-73
2022/07/20 12:34:01;;;;;;;4.22;3.38;;;36.30;81.00;;;;;;5037034;28;20222;-73
2022/07/20 12:36:33;;;;;;;3.80;3.50;;;36.20;81.40;;;;;;5039418;28;20207;-75
2022/07/20 12:39:01;;;;;;;3.70;3.40;;;36.20;82.40;;;;;;5040798;28;20246;-74
2022/07/20 12:41:28;;;;;;;4.68;3.25;;;36.30;82.50;;;;;;5041158;28;20195;-74
2022/07/20 12:43:55;;;;;;;5.40;3.55;;;36.30;82.40;;;;;;5040022;28;20222;-74
2022/07/20 12:46:25;;;;;;;4.85;3.55;;;36.40;81.70;;;;;;5040748;28;20199;-74
2022/07/20 12:48:52;;;;;;;5.20;3.10;;;36.40;81.30;;;;;;5040712;28;20712;-76
2022/07/20 12:51:20;;;;;;;3.85;3.35;;;36.40;81.30;;;;;;5038448;28;20222;-74
2022/07/20 12:53:49;;;;;;;5.10;3.40;;;36.60;81.30;;;;;;5039105;28;20309;-75
2022/07/20 12:56:17;;;;;;;3.88;3.20;;;36.60;81.80;;;;;;5038971;28;20191;-73
2022/07/20 12:58:45;;;;;;;4.32;3.55;;;36.50;80.70;;;;;;5038106;28;20600;-74